Portada
METAR-TAF:

METAR-TAF

Aeroports :

Saint-Pierre, Reunió

latitud: 21-20S, longitud: 055-29E, altitud: 52 m

Observació

L'informe es va fer fa 40 minuts, a les 01:00 UTC
Vent 6 kt del Nord-Est
Temperatura 21°C
Humitat 64%
Pressió 1020 hPa
Visibilitat 10 km o més

METAR: FMEP 180100Z AUTO 05006KT 9999 OVC084/// ///CB 21/14 Q1020

Hora: 05:40 (01:40 UTC)

Pronòstic

L'informe es va fer fa 14 hores i 40 minuts, a les 11:00 UTC
Pronòstic vàlid del 17 a les 12 UTC al 17 a les 21 UTC
Vent 22 kt del Est/Sud-Est
Visibilitat 10 km o més
Cel ennuvolat a una alçada de 7000 ft
Temporalment
l' 17 a les 12 UTC al 17 a les 19 UTC
Vent 14 kt del Est amb ràfegues de 24 kt
Temporalment
l' 17 a les 19 UTC al 17 a les 21 UTC
Vent 15 kt del Est amb ràfegues de 25 kt
Visibilitat: 4500 m
Núvols disperses a una alçada de 2000 ft, Cumulus congestus.
xàfecs de pluja

TAF: FMEP 171100Z 1712/1721 11022KT 9999 BKN070 TEMPO 1712/1719 10014G24KT TEMPO 1719/1721 10015G25KT 4500 SHRA SCT020TCU

Observacions i pronòstics meteorològics de més de 4000 aeroports (METAR i TAF).

Les estacions disponibles són els punts grocs i vermells al mapa.

Posi el ratolí al punt desitjat per veure el nom de l'estació.

Feu clic per veure les observacions i els pronòstics meteorològics.

Per canviar el mapa: feu clic els botons verds amb una creu de color negre per apropar; al botó verd amb un guió per allunyar la imatge; o en les fletxes verdes per a mapes adjacents.


METAR-TAF: